Time;durP1;ratioP1;P1;durP2;ratioP2;P2;SDS_P1;SDS_P2;PMS_P1;PMS_P2;Temp;Humidity;BMP_temperature;BMP_pressure;BME280_temperature;BME280_humidity;BME280_pressure;Samples;Min_cycle;Max_cycle;Signal;HPM_P1;HPM_P2
2022/12/25 00:00:28;;;;;;;12.82;5.72;;;;;;;;;;5020189;28;20512;-65
2022/12/25 00:02:55;;;;;;;14.85;7.65;;;;;;;;;;5022284;28;20060;-65
2022/12/25 00:05:21;;;;;;;14.90;6.50;;;;;;;;;;5023790;28;20060;-66
2022/12/25 00:07:48;;;;;;;14.32;5.93;;;;;;;;;;5046273;28;20039;-68
2022/12/25 00:10:15;;;;;;;12.50;7.30;;;;;;;;;;5045097;28;20040;-65
2022/12/25 00:12:41;;;;;;;12.50;6.45;;;;;;;;;;5045016;28;20093;-66
2022/12/25 00:15:08;;;;;;;12.05;4.72;;;;;;;;;;5045196;28;20535;-65
2022/12/25 00:17:35;;;;;;;8.88;4.03;;;;;;;;;;5046606;28;20037;-66
2022/12/25 00:20:02;;;;;;;12.82;4.57;;;;;;;;;;5047153;28;20041;-64
2022/12/25 00:22:29;;;;;;;9.00;3.90;;;;;;;;;;5045238;28;20057;-66
2022/12/25 00:24:56;;;;;;;10.50;4.35;;;;;;;;;;5044917;28;20040;-65
2022/12/25 00:27:22;;;;;;;8.25;4.10;;;;;;;;;;5044546;28;20033;-65
2022/12/25 00:29:49;;;;;;;10.93;4.35;;;;;;;;;;5044493;28;20173;-66
2022/12/25 00:32:15;;;;;;;10.50;4.28;;;;;;;;;;5043660;28;20099;-65
2022/12/25 00:34:42;;;;;;;7.28;4.47;;;;;;;;;;5045664;28;20746;-65
2022/12/25 00:37:09;;;;;;;9.05;4.75;;;;;;;;;;5045201;28;20045;-66
2022/12/25 00:39:35;;;;;;;8.85;4.18;;;;;;;;;;5045490;28;20029;-66
2022/12/25 00:42:17;;;;;;;10.55;5.25;;;;;;;;;;5045190;28;20048;-67
2022/12/25 00:44:44;;;;;;;9.27;4.70;;;;;;;;;;5033798;28;20137;-67
2022/12/25 00:47:11;;;;;;;11.98;4.30;;;;;;;;;;5023472;28;20888;-67
2022/12/25 00:49:38;;;;;;;11.07;5.28;;;;;;;;;;5022692;28;20549;-66
2022/12/25 00:52:04;;;;;;;10.18;4.28;;;;;;;;;;5023774;28;20049;-65
2022/12/25 00:54:31;;;;;;;9.20;4.35;;;;;;;;;;5024842;28;20512;-65
2022/12/25 00:56:58;;;;;;;9.90;5.18;;;;;;;;;;5025496;28;20084;-66
2022/12/25 00:59:24;;;;;;;10.32;5.85;;;;;;;;;;5025383;28;20573;-67
2022/12/25 01:01:51;;;;;;;12.43;5.95;;;;;;;;;;5026551;28;20047;-67
2022/12/25 01:04:18;;;;;;;11.93;6.20;;;;;;;;;;5028003;28;20151;-68
2022/12/25 01:06:44;;;;;;;10.52;5.82;;;;;;;;;;5030774;28;20063;-66
2022/12/25 01:11:56;;;;;;;11.23;5.53;;;;;;;;;;5033215;28;21875;-67
2022/12/25 01:14:23;;;;;;;15.05;6.15;;;;;;;;;;5022141;28;20538;-66
2022/12/25 01:16:49;;;;;;;14.50;6.18;;;;;;;;;;5029945;28;20044;-66
2022/12/25 01:19:16;;;;;;;11.23;5.68;;;;;;;;;;5032501;28;20478;-65
2022/12/25 01:21:42;;;;;;;10.90;6.35;;;;;;;;;;5027647;28;20558;-66
2022/12/25 01:24:09;;;;;;;11.88;5.93;;;;;;;;;;5028939;28;20410;-65
2022/12/25 01:26:36;;;;;;;11.75;5.97;;;;;;;;;;5029862;28;20045;-66
2022/12/25 01:29:02;;;;;;;10.43;6.03;;;;;;;;;;5030111;28;20038;-66
2022/12/25 01:31:29;;;;;;;11.48;5.80;;;;;;;;;;5033094;28;20124;-66
2022/12/25 01:33:56;;;;;;;12.35;5.70;;;;;;;;;;5030738;28;20049;-65
2022/12/25 01:36:24;;;;;;;11.60;6.15;;;;;;;;;;5031285;28;20037;-67
2022/12/25 01:38:52;;;;;;;9.18;5.55;;;;;;;;;;5041307;28;20037;-66
2022/12/25 01:41:20;;;;;;;16.02;6.25;;;;;;;;;;5027533;28;20489;-66
2022/12/25 01:44:16;;;;;;;15.43;6.28;;;;;;;;;;5027814;28;20049;-65
2022/12/25 01:46:43;;;;;;;12.15;5.72;;;;;;;;;;5005983;28;20043;-66
2022/12/25 01:49:16;;;;;;;12.48;6.10;;;;;;;;;;5029383;28;20121;-66
2022/12/25 01:51:48;;;;;;;9.02;5.50;;;;;;;;;;5028162;28;20037;-68
2022/12/25 01:54:22;;;;;;;13.13;6.65;;;;;;;;;;5029716;28;20036;-65
2022/12/25 01:56:50;;;;;;;12.02;6.65;;;;;;;;;;5030244;28;20056;-66
2022/12/25 01:59:19;;;;;;;14.32;7.05;;;;;;;;;;5027422;28;20460;-65
2022/12/25 02:01:46;;;;;;;16.52;6.80;;;;;;;;;;5027301;28;20030;-65
2022/12/25 02:04:19;;;;;;;12.43;6.55;;;;;;;;;;5028979;28;20049;-65
2022/12/25 02:06:45;;;;;;;;;;;;;;;;;;5035719;28;20033;-66
2022/12/25 02:09:12;;;;;;;11.18;6.35;;;;;;;;;;5043644;28;19961;-65
2022/12/25 02:11:57;;;;;;;12.02;7.13;;;;;;;;;;5046630;28;20048;-66
2022/12/25 02:14:27;;;;;;;17.48;7.30;;;;;;;;;;5046964;28;20040;-65
2022/12/25 02:17:01;;;;;;;17.20;7.32;;;;;;;;;;5048403;28;20041;-66
2022/12/25 02:19:37;;;;;;;10.65;6.90;;;;;;;;;;5047010;28;20043;-64
2022/12/25 02:22:23;;;;;;;16.80;8.30;;;;;;;;;;5047603;28;20037;-65
2022/12/25 02:25:00;;;;;;;16.48;7.18;;;;;;;;;;5047670;28;20481;-66
2022/12/25 02:27:45;;;;;;;15.68;7.00;;;;;;;;;;5024444;28;20145;-65
2022/12/25 02:30:12;;;;;;;10.32;6.45;;;;;;;;;;5032094;28;20082;-66
2022/12/25 02:32:42;;;;;;;15.82;7.20;;;;;;;;;;5059691;28;22553;-65
2022/12/25 02:35:15;;;;;;;13.07;7.60;;;;;;;;;;5045929;28;20041;-65
2022/12/25 02:37:52;;;;;;;11.07;6.63;;;;;;;;;;5047367;28;20056;-65
2022/12/25 02:40:22;;;;;;;12.77;7.32;;;;;;;;;;5049718;28;20277;-66
2022/12/25 03:08:08;;;;;;;12.20;5.38;;;;;;;;;;5039270;28;20112;-66
2022/12/25 03:13:24;;;;;;;12.45;5.18;;;;;;;;;;5021392;28;20048;-66
2022/12/25 03:18:36;;;;;;;9.95;4.72;;;;;;;;;;5020883;28;20075;-66
2022/12/25 03:32:12;;;;;;;8.85;4.30;;;;;;;;;;5027259;28;20044;-68
2022/12/25 04:36:10;;;;;;;9.02;3.58;;;;;;;;;;5024880;28;20048;-66
2022/12/25 04:38:36;;;;;;;6.57;3.05;;;;;;;;;;5026711;28;20045;-67
2022/12/25 04:41:03;;;;;;;6.38;2.92;;;;;;;;;;5025067;28;20148;-67
2022/12/25 04:43:30;;;;;;;7.97;3.42;;;;;;;;;;5030468;28;20049;-67
2022/12/25 04:45:58;;;;;;;9.38;3.05;;;;;;;;;;5025711;28;20128;-66
2022/12/25 04:48:25;;;;;;;5.60;2.63;;;;;;;;;;5025240;28;20041;-67
2022/12/25 04:50:52;;;;;;;6.00;2.50;;;;;;;;;;5026090;28;20702;-68
2022/12/25 04:53:19;;;;;;;5.97;2.75;;;;;;;;;;5025099;28;20118;-67
2022/12/25 04:55:46;;;;;;;6.18;1.85;;;;;;;;;;5025522;28;21981;-67
2022/12/25 04:58:12;;;;;;;4.45;1.77;;;;;;;;;;5025845;28;20033;-67
2022/12/25 05:00:39;;;;;;;3.30;1.58;;;;;;;;;;5024427;28;20052;-68
2022/12/25 05:03:06;;;;;;;6.30;1.90;;;;;;;;;;5025242;28;20045;-67
2022/12/25 05:05:33;;;;;;;5.57;1.73;;;;;;;;;;5026830;28;20167;-69
2022/12/25 05:08:00;;;;;;;4.03;1.30;;;;;;;;;;5042444;28;20045;-68
2022/12/25 05:10:26;;;;;;;2.45;1.10;;;;;;;;;;5026508;28;20038;-66
2022/12/25 05:12:53;;;;;;;4.88;0.90;;;;;;;;;;5024047;28;20150;-67
2022/12/25 05:15:19;;;;;;;3.42;0.93;;;;;;;;;;5024021;28;20498;-67
2022/12/25 05:17:46;;;;;;;1.73;0.50;;;;;;;;;;5027136;28;20120;-67
2022/12/25 05:20:14;;;;;;;2.03;0.60;;;;;;;;;;5024585;28;20033;-67
2022/12/25 05:22:41;;;;;;;1.98;0.60;;;;;;;;;;5022517;28;20049;-66
2022/12/25 05:25:08;;;;;;;1.98;0.50;;;;;;;;;;5023004;28;20048;-67
2022/12/25 05:27:35;;;;;;;2.17;0.50;;;;;;;;;;5022304;28;20535;-67
2022/12/25 05:30:01;;;;;;;0.98;0.40;;;;;;;;;;5024643;28;20037;-66
2022/12/25 05:32:28;;;;;;;1.13;0.40;;;;;;;;;;5021666;28;20122;-67
2022/12/25 05:34:54;;;;;;;0.85;0.40;;;;;;;;;;5023712;28;20088;-67
2022/12/25 05:37:21;;;;;;;1.77;0.50;;;;;;;;;;5023587;28;20037;-67
2022/12/25 05:39:48;;;;;;;1.95;0.50;;;;;;;;;;5022817;28;20117;-68
2022/12/25 05:42:16;;;;;;;1.38;0.50;;;;;;;;;;5018355;28;20145;-66
2022/12/25 05:44:43;;;;;;;1.73;0.50;;;;;;;;;;5018253;28;20041;-68
2022/12/25 05:47:09;;;;;;;1.48;0.40;;;;;;;;;;5024071;28;20048;-66
2022/12/25 05:49:36;;;;;;;1.38;0.40;;;;;;;;;;5023722;28;20037;-68
2022/12/25 05:52:03;;;;;;;1.15;0.43;;;;;;;;;;5026434;28;20256;-66
2022/12/25 05:54:29;;;;;;;1.17;0.40;;;;;;;;;;5027842;28;20045;-66
2022/12/25 05:56:56;;;;;;;1.10;0.40;;;;;;;;;;5031698;28;20041;-67
2022/12/25 05:59:23;;;;;;;0.98;0.40;;;;;;;;;;5029242;28;20103;-65
2022/12/25 06:01:49;;;;;;;1.67;0.50;;;;;;;;;;5030005;28;20073;-65
2022/12/25 06:04:16;;;;;;;1.52;0.50;;;;;;;;;;5026896;28;20041;-66
2022/12/25 06:06:43;;;;;;;0.85;0.40;;;;;;;;;;5027720;28;21597;-66
2022/12/25 06:09:12;;;;;;;1.38;0.47;;;;;;;;;;5027529;28;20139;-66
2022/12/25 06:11:39;;;;;;;1.17;0.40;;;;;;;;;;5024517;28;22786;-65
2022/12/25 06:14:05;;;;;;;0.80;0.40;;;;;;;;;;5027397;28;20497;-67
2022/12/25 06:16:32;;;;;;;1.23;0.50;;;;;;;;;;5025307;28;20045;-67
2022/12/25 06:18:59;;;;;;;0.95;0.40;;;;;;;;;;5025947;28;20087;-67
2022/12/25 06:21:26;;;;;;;0.65;0.40;;;;;;;;;;5024339;28;20033;-66
2022/12/25 06:23:52;;;;;;;1.17;0.47;;;;;;;;;;5026802;28;20033;-66
2022/12/25 06:26:19;;;;;;;0.57;0.40;;;;;;;;;;5026265;28;20072;-67
2022/12/25 06:28:46;;;;;;;0.77;0.40;;;;;;;;;;5025831;28;20354;-67
2022/12/25 06:31:14;;;;;;;0.40;0.40;;;;;;;;;;5027287;28;20140;-67
2022/12/25 06:33:41;;;;;;;1.05;0.40;;;;;;;;;;5026184;28;20049;-67
2022/12/25 06:36:10;;;;;;;0.30;0.30;;;;;;;;;;5027772;28;20238;-67
2022/12/25 06:38:36;;;;;;;1.80;0.50;;;;;;;;;;5026157;28;20184;-67
2022/12/25 06:41:07;;;;;;;0.82;0.40;;;;;;;;;;5024137;28;20059;-66
2022/12/25 06:43:34;;;;;;;1.27;0.50;;;;;;;;;;5041784;28;20063;-66
2022/12/25 06:46:04;;;;;;;1.60;0.47;;;;;;;;;;5026925;28;20115;-66
2022/12/25 06:48:31;;;;;;;1.00;0.40;;;;;;;;;;5025026;28;20046;-66
2022/12/25 06:50:58;;;;;;;1.92;0.55;;;;;;;;;;5027708;28;20111;-67
2022/12/25 06:53:25;;;;;;;1.50;0.50;;;;;;;;;;5025430;28;20049;-66
2022/12/25 06:55:51;;;;;;;0.63;0.40;;;;;;;;;;5027301;28;20037;-66
2022/12/25 06:58:18;;;;;;;1.83;0.50;;;;;;;;;;5027560;28;20068;-66
2022/12/25 07:00:45;;;;;;;1.63;0.50;;;;;;;;;;5025950;28;20041;-67
2022/12/25 07:03:14;;;;;;;1.20;0.50;;;;;;;;;;5026769;28;20077;-65
2022/12/25 07:05:40;;;;;;;2.15;0.60;;;;;;;;;;5026438;28;20925;-66
2022/12/25 07:08:07;;;;;;;1.98;0.65;;;;;;;;;;5027136;28;20092;-67
2022/12/25 07:10:34;;;;;;;2.00;0.50;;;;;;;;;;5038502;28;20068;-65
2022/12/25 07:13:00;;;;;;;1.98;0.55;;;;;;;;;;5025592;28;20045;-65
2022/12/25 07:15:27;;;;;;;1.27;0.50;;;;;;;;;;5026844;28;20041;-66
2022/12/25 07:17:54;;;;;;;2.63;0.40;;;;;;;;;;5027425;28;20440;-65
2022/12/25 07:20:20;;;;;;;1.30;0.50;;;;;;;;;;5024930;28;20048;-65
2022/12/25 07:22:47;;;;;;;1.20;0.50;;;;;;;;;;5026045;28;20035;-66
2022/12/25 07:25:13;;;;;;;1.50;0.50;;;;;;;;;;5026166;28;20036;-65
2022/12/25 07:27:40;;;;;;;1.40;0.40;;;;;;;;;;5026157;28;20041;-66
2022/12/25 07:30:07;;;;;;;1.48;0.40;;;;;;;;;;5041537;28;20051;-65
2022/12/25 07:32:34;;;;;;;0.77;0.45;;;;;;;;;;5025402;28;20068;-65
2022/12/25 07:35:00;;;;;;;1.70;0.50;;;;;;;;;;5025993;28;20065;-65
2022/12/25 07:37:27;;;;;;;0.88;0.40;;;;;;;;;;5024958;28;20055;-66
2022/12/25 07:39:54;;;;;;;1.13;0.40;;;;;;;;;;5025776;28;20507;-65
2022/12/25 07:42:20;;;;;;;0.63;0.40;;;;;;;;;;5025387;28;20792;-65
2022/12/25 07:44:47;;;;;;;1.42;0.55;;;;;;;;;;5027440;28;20226;-66
2022/12/25 07:47:14;;;;;;;1.05;0.40;;;;;;;;;;5040780;28;20516;-66
2022/12/25 07:49:41;;;;;;;1.10;0.50;;;;;;;;;;5024425;28;20040;-66
2022/12/25 07:52:07;;;;;;;0.77;0.40;;;;;;;;;;5026132;28;20568;-65
2022/12/25 07:54:34;;;;;;;0.98;0.40;;;;;;;;;;5026454;28;20053;-65
2022/12/25 07:57:00;;;;;;;1.05;0.40;;;;;;;;;;5026540;28;20183;-65
2022/12/25 07:59:27;;;;;;;1.17;0.43;;;;;;;;;;5026823;28;20029;-66
2022/12/25 08:01:54;;;;;;;0.85;0.40;;;;;;;;;;5025955;28;20174;-65
2022/12/25 08:04:20;;;;;;;0.90;0.43;;;;;;;;;;5026822;28;20139;-65
2022/12/25 08:06:47;;;;;;;1.33;0.50;;;;;;;;;;5025739;28;20049;-65
2022/12/25 08:09:14;;;;;;;0.88;0.40;;;;;;;;;;5025878;28;20363;-65
2022/12/25 08:11:45;;;;;;;1.20;0.40;;;;;;;;;;5026741;28;20450;-66
2022/12/25 08:14:12;;;;;;;0.80;0.40;;;;;;;;;;5026339;28;20049;-65
2022/12/25 08:16:40;;;;;;;2.05;0.50;;;;;;;;;;5024525;28;20041;-66
2022/12/25 08:19:07;;;;;;;0.43;0.30;;;;;;;;;;5039877;28;20041;-65
2022/12/25 08:21:34;;;;;;;1.13;0.43;;;;;;;;;;5022217;28;20118;-65
2022/12/25 08:24:01;;;;;;;0.30;0.30;;;;;;;;;;5026859;28;20046;-65
2022/12/25 08:26:28;;;;;;;0.52;0.40;;;;;;;;;;5023821;28;20036;-65
2022/12/25 08:28:55;;;;;;;0.80;0.40;;;;;;;;;;5026230;28;20045;-65
2022/12/25 08:31:27;;;;;;;1.00;0.43;;;;;;;;;;5024694;28;20056;-65
2022/12/25 08:33:55;;;;;;;1.08;0.40;;;;;;;;;;5028683;28;20057;-64
2022/12/25 08:36:22;;;;;;;0.90;0.45;;;;;;;;;;5029212;28;20056;-65
2022/12/25 08:38:49;;;;;;;0.55;0.40;;;;;;;;;;5026175;28;20505;-66
2022/12/25 08:41:16;;;;;;;1.08;0.40;;;;;;;;;;5027701;28;20037;-65
2022/12/25 08:43:43;;;;;;;0.77;0.40;;;;;;;;;;5027221;28;20045;-64
2022/12/25 08:46:10;;;;;;;1.60;0.40;;;;;;;;;;5023874;28;20052;-65
2022/12/25 08:48:37;;;;;;;1.48;0.50;;;;;;;;;;5024033;28;20505;-65
2022/12/25 08:51:04;;;;;;;1.33;0.50;;;;;;;;;;5024590;28;20045;-64
2022/12/25 08:53:31;;;;;;;1.23;0.40;;;;;;;;;;5025903;28;20088;-67
2022/12/25 08:56:05;;;;;;;0.90;0.40;;;;;;;;;;5025886;28;20071;-65
2022/12/25 08:58:32;;;;;;;1.27;0.43;;;;;;;;;;5040053;28;20350;-65
2022/12/25 09:00:59;;;;;;;1.48;0.50;;;;;;;;;;5023915;28;20506;-64
2022/12/25 09:03:26;;;;;;;1.35;0.50;;;;;;;;;;5024317;28;20079;-64
2022/12/25 09:05:53;;;;;;;1.10;0.40;;;;;;;;;;5027090;28;20034;-64
2022/12/25 09:08:20;;;;;;;0.88;0.40;;;;;;;;;;5026194;28;20041;-64
2022/12/25 09:10:47;;;;;;;1.23;0.40;;;;;;;;;;5025467;28;20045;-64
2022/12/25 09:13:14;;;;;;;1.92;0.50;;;;;;;;;;5024914;28;20053;-65
2022/12/25 09:15:41;;;;;;;0.35;0.30;;;;;;;;;;5024363;28;20124;-64
2022/12/25 09:18:07;;;;;;;0.75;0.40;;;;;;;;;;5025967;28;20378;-64
2022/12/25 09:20:34;;;;;;;0.75;0.30;;;;;;;;;;5025132;28;20040;-64
2022/12/25 09:23:01;;;;;;;1.23;0.40;;;;;;;;;;5023906;28;20044;-67
2022/12/25 09:25:27;;;;;;;0.85;0.40;;;;;;;;;;5042370;28;20466;-65
2022/12/25 09:27:55;;;;;;;0.55;0.40;;;;;;;;;;5028584;28;20116;-66
2022/12/25 09:30:22;;;;;;;0.50;0.30;;;;;;;;;;5026772;28;20057;-65
2022/12/25 09:32:50;;;;;;;0.55;0.32;;;;;;;;;;5041127;28;20560;-65
2022/12/25 09:35:17;;;;;;;0.65;0.40;;;;;;;;;;5028819;28;20084;-66
2022/12/25 09:37:44;;;;;;;0.75;0.40;;;;;;;;;;5037558;28;20048;-66
2022/12/25 09:40:15;;;;;;;1.10;0.40;;;;;;;;;;5028553;28;20041;-67
2022/12/25 09:42:41;;;;;;;0.77;0.40;;;;;;;;;;5025699;28;20131;-65
2022/12/25 09:45:13;;;;;;;1.92;0.60;;;;;;;;;;5033892;28;20037;-67
2022/12/25 09:47:42;;;;;;;1.73;0.60;;;;;;;;;;5029707;28;20049;-66
2022/12/25 09:50:26;;;;;;;2.08;0.73;;;;;;;;;;5056733;28;20037;-67
2022/12/25 09:52:56;;;;;;;1.02;0.40;;;;;;;;;;5048332;28;20052;-66
2022/12/25 09:55:24;;;;;;;0.82;0.40;;;;;;;;;;5049154;28;20114;-66
2022/12/25 09:57:57;;;;;;;0.68;0.40;;;;;;;;;;5048723;28;20048;-66
2022/12/25 10:00:24;;;;;;;;;;;;;;;;;;5047023;28;20517;-65
2022/12/25 10:03:09;;;;;;;1.10;0.40;;;;;;;;;;5047549;28;20793;-66
2022/12/25 10:05:55;;;;;;;0.63;0.40;;;;;;;;;;5047216;28;20048;-65
2022/12/25 10:08:24;;;;;;;0.47;0.38;;;;;;;;;;5047585;28;20044;-65
2022/12/25 10:11:09;;;;;;;0.70;0.40;;;;;;;;;;5044675;28;20037;-65
2022/12/25 10:14:08;;;;;;;0.35;0.30;;;;;;;;;;5046995;28;20523;-65
2022/12/25 10:16:53;;;;;;;1.20;0.40;;;;;;;;;;5021326;28;20072;-66
2022/12/25 10:19:29;;;;;;;0.88;0.38;;;;;;;;;;5026502;28;20767;-65
2022/12/25 10:21:58;;;;;;;0.40;0.40;;;;;;;;;;5025858;28;20048;-65
2022/12/25 10:24:36;;;;;;;1.10;0.40;;;;;;;;;;5027522;28;20116;-67
2022/12/25 10:27:07;;;;;;;0.63;0.40;;;;;;;;;;5027050;28;20045;-66
2022/12/25 10:29:34;;;;;;;0.68;0.40;;;;;;;;;;5027907;28;20493;-65
2022/12/25 10:32:01;;;;;;;1.02;0.40;;;;;;;;;;5027492;28;20036;-66
2022/12/25 10:34:28;;;;;;;1.13;0.47;;;;;;;;;;5026151;28;20084;-66
2022/12/25 10:36:54;;;;;;;1.50;0.50;;;;;;;;;;5027457;28;21394;-66
2022/12/25 10:39:22;;;;;;;0.85;0.40;;;;;;;;;;5027369;28;20045;-66
2022/12/25 10:41:49;;;;;;;0.77;0.40;;;;;;;;;;5026238;28;20112;-66
2022/12/25 10:44:20;;;;;;;0.95;0.40;;;;;;;;;;5028295;28;20540;-66
2022/12/25 10:47:05;;;;;;;0.50;0.40;;;;;;;;;;5027514;28;20522;-66
2022/12/25 10:49:33;;;;;;;0.90;0.40;;;;;;;;;;5027168;28;20497;-66
2022/12/25 10:52:01;;;;;;;0.88;0.40;;;;;;;;;;5026226;28;20611;-66
2022/12/25 10:54:35;;;;;;;1.40;0.40;;;;;;;;;;5026844;28;20171;-66
2022/12/25 10:57:21;;;;;;;0.47;0.30;;;;;;;;;;5026547;28;20490;-66
2022/12/25 10:59:49;;;;;;;1.00;0.40;;;;;;;;;;5037707;28;20529;-64
2022/12/25 11:02:35;;;;;;;3.25;1.00;;;;;;;;;;5045450;28;20061;-64
2022/12/25 11:05:13;;;;;;;1.50;0.60;;;;;;;;;;5046887;28;20186;-65
2022/12/25 11:07:53;;;;;;;1.88;0.60;;;;;;;;;;5046749;28;20044;-64
2022/12/25 11:10:31;;;;;;;2.03;0.60;;;;;;;;;;5045838;28;20047;-64
2022/12/25 11:12:58;;;;;;;1.80;0.60;;;;;;;;;;5046179;28;20055;-64
2022/12/25 11:15:35;;;;;;;0.32;0.32;;;;;;;;;;5046286;28;20039;-64
2022/12/25 11:18:03;;;;;;;1.42;0.50;;;;;;;;;;5047829;28;20048;-64
2022/12/25 11:20:32;;;;;;;0.98;0.40;;;;;;;;;;5044233;28;20086;-64
2022/12/25 11:22:58;;;;;;;0.82;0.40;;;;;;;;;;5046465;28;20050;-64
2022/12/25 11:25:27;;;;;;;1.23;0.40;;;;;;;;;;5045996;28;20043;-64
2022/12/25 11:28:01;;;;;;;0.70;0.40;;;;;;;;;;5047371;28;20045;-64
2022/12/25 11:30:29;;;;;;;0.95;0.40;;;;;;;;;;5044837;28;20036;-66
2022/12/25 11:32:57;;;;;;;1.05;0.40;;;;;;;;;;5054587;28;20699;-65
2022/12/25 11:35:27;;;;;;;4.78;0.57;;;;;;;;;;5032546;28;20101;-66
2022/12/25 11:37:54;;;;;;;0.40;0.40;;;;;;;;;;5037154;28;20382;-66
2022/12/25 11:40:39;;;;;;;0.57;0.40;;;;;;;;;;5043964;28;21481;-66
2022/12/25 11:43:12;;;;;;;0.52;0.40;;;;;;;;;;5045565;28;20575;-66
2022/12/25 11:45:41;;;;;;;0.88;0.40;;;;;;;;;;5044435;28;20084;-66
2022/12/25 11:48:08;;;;;;;0.95;0.30;;;;;;;;;;5044904;28;20879;-65
2022/12/25 11:50:34;;;;;;;1.50;0.47;;;;;;;;;;5043568;28;20489;-65
2022/12/25 11:53:14;;;;;;;0.90;0.40;;;;;;;;;;5046412;28;20404;-65
2022/12/25 11:55:43;;;;;;;0.93;0.40;;;;;;;;;;5044468;28;20036;-65
2022/12/25 11:58:15;;;;;;;0.70;0.40;;;;;;;;;;5045817;28;20057;-66
2022/12/25 12:00:43;;;;;;;0.38;0.35;;;;;;;;;;5044772;28;20042;-65
2022/12/25 12:03:16;;;;;;;1.23;0.40;;;;;;;;;;5048108;28;20122;-66
2022/12/25 12:05:45;;;;;;;0.55;0.40;;;;;;;;;;5046932;28;20110;-65
2022/12/25 12:08:13;;;;;;;1.10;0.50;;;;;;;;;;5047538;28;20060;-67
2022/12/25 12:10:42;;;;;;;1.40;0.50;;;;;;;;;;5043638;28;20037;-66
2022/12/25 12:13:15;;;;;;;0.70;0.40;;;;;;;;;;5045569;28;20054;-66
2022/12/25 12:15:44;;;;;;;0.73;0.40;;;;;;;;;;5044655;28;20326;-66
2022/12/25 12:18:21;;;;;;;1.70;0.50;;;;;;;;;;5045401;28;20611;-66
2022/12/25 12:21:07;;;;;;;2.50;0.43;;;;;;;;;;5043857;28;20440;-66
2022/12/25 12:23:36;;;;;;;1.45;0.50;;;;;;;;;;5043190;28;20047;-66
2022/12/25 12:26:03;;;;;;;0.90;0.40;;;;;;;;;;5046102;28;20044;-65
2022/12/25 12:28:36;;;;;;;2.20;0.60;;;;;;;;;;5043344;28;20037;-66
2022/12/25 12:31:05;;;;;;;0.90;0.40;;;;;;;;;;5042968;28;20811;-65
2022/12/25 12:33:52;;;;;;;1.15;0.50;;;;;;;;;;5043263;28;20076;-66
2022/12/25 12:36:21;;;;;;;3.53;0.98;;;;;;;;;;5043770;28;20067;-66
2022/12/25 12:38:49;;;;;;;2.13;0.60;;;;;;;;;;5046132;28;20036;-66
2022/12/25 12:41:17;;;;;;;2.70;0.80;;;;;;;;;;5043499;28;20048;-65
2022/12/25 12:43:48;;;;;;;2.47;0.70;;;;;;;;;;5044599;28;20136;-65
2022/12/25 12:46:17;;;;;;;2.08;0.60;;;;;;;;;;5044241;28;20408;-66
2022/12/25 12:48:46;;;;;;;1.25;0.40;;;;;;;;;;5042620;28;20029;-66
2022/12/25 12:51:14;;;;;;;1.45;0.47;;;;;;;;;;5043215;28;20129;-67
2022/12/25 12:53:42;;;;;;;2.47;0.60;;;;;;;;;;5044285;28;20120;-66
2022/12/25 12:56:16;;;;;;;1.67;0.60;;;;;;;;;;5044047;28;20032;-66
2022/12/25 12:58:50;;;;;;;3.25;0.52;;;;;;;;;;5042140;28;20041;-65
2022/12/25 13:01:16;;;;;;;;;;;;;;;;;;5048731;28;20071;-65
2022/12/25 13:03:48;;;;;;;1.52;0.50;;;;;;;;;;5049663;28;19917;-68
2022/12/25 13:06:41;;;;;;;2.40;0.80;;;;;;;;;;5048482;28;20044;-68
2022/12/25 13:09:14;;;;;;;2.35;0.75;;;;;;;;;;5046681;28;20381;-66
2022/12/25 13:11:42;;;;;;;3.03;0.80;;;;;;;;;;5046639;28;20127;-66
2022/12/25 13:14:21;;;;;;;1.92;0.70;;;;;;;;;;5048502;28;20082;-68
2022/12/25 13:16:49;;;;;;;4.30;0.80;;;;;;;;;;5034620;28;20033;-67
2022/12/25 13:19:23;;;;;;;2.40;0.80;;;;;;;;;;5027418;28;20129;-67
2022/12/25 13:21:57;;;;;;;1.60;0.52;;;;;;;;;;5025791;28;20056;-67
2022/12/25 13:24:28;;;;;;;2.90;0.75;;;;;;;;;;5042228;28;20065;-68
2022/12/25 13:26:55;;;;;;;3.53;0.85;;;;;;;;;;5028512;28;20045;-67
2022/12/25 13:29:22;;;;;;;2.38;0.80;;;;;;;;;;5027434;28;20041;-67
2022/12/25 13:31:49;;;;;;;2.38;0.88;;;;;;;;;;5028682;28;20029;-68
2022/12/25 13:34:26;;;;;;;2.40;0.70;;;;;;;;;;5029275;28;20056;-67
2022/12/25 13:36:54;;;;;;;2.72;0.95;;;;;;;;;;5029781;28;20086;-68
2022/12/25 13:39:23;;;;;;;3.22;1.08;;;;;;;;;;5050201;28;20176;-67
2022/12/25 13:42:05;;;;;;;2.63;0.80;;;;;;;;;;5063209;28;20456;-67
2022/12/25 13:44:43;;;;;;;3.10;0.98;;;;;;;;;;5040197;28;20110;-67
2022/12/25 13:47:15;;;;;;;2.60;0.77;;;;;;;;;;5063312;28;20065;-68
2022/12/25 13:49:42;;;;;;;4.05;0.93;;;;;;;;;;5046931;28;20520;-67
2022/12/25 13:52:13;;;;;;;3.55;1.00;;;;;;;;;;5049221;28;20043;-67
2022/12/25 13:54:40;;;;;;;3.20;1.00;;;;;;;;;;5044702;28;20161;-67
2022/12/25 13:57:15;;;;;;;3.15;0.90;;;;;;;;;;5048509;28;20079;-68
2022/12/25 13:59:44;;;;;;;2.38;0.90;;;;;;;;;;5046354;28;20040;-68
2022/12/25 14:02:18;;;;;;;3.05;1.10;;;;;;;;;;5047724;28;20052;-68
2022/12/25 14:04:45;;;;;;;6.75;1.20;;;;;;;;;;5046695;28;20060;-68
2022/12/25 14:07:13;;;;;;;3.85;1.10;;;;;;;;;;5046868;28;20112;-67
2022/12/25 14:09:40;;;;;;;3.40;1.15;;;;;;;;;;5044355;28;20048;-68
2022/12/25 14:12:07;;;;;;;5.60;1.30;;;;;;;;;;5045517;28;20556;-68
2022/12/25 14:14:36;;;;;;;3.40;0.88;;;;;;;;;;5046976;28;20048;-69
2022/12/25 14:17:23;;;;;;;5.00;1.75;;;;;;;;;;5010845;28;20063;-68
2022/12/25 14:19:59;;;;;;;5.25;1.50;;;;;;;;;;5012977;28;20755;-68
2022/12/25 14:22:26;;;;;;;4.60;1.80;;;;;;;;;;5012539;28;20041;-69
2022/12/25 14:24:53;;;;;;;6.88;1.50;;;;;;;;;;5013748;28;20047;-68
2022/12/25 14:27:29;;;;;;;7.13;2.72;;;;;;;;;;5013135;28;20213;-68
2022/12/25 14:29:57;;;;;;;4.95;2.30;;;;;;;;;;5012378;28;20893;-68
2022/12/25 14:32:27;;;;;;;5.10;2.33;;;;;;;;;;5011622;28;20057;-68
2022/12/25 14:34:58;;;;;;;8.32;2.10;;;;;;;;;;5013706;28;20222;-68
2022/12/25 14:37:28;;;;;;;5.65;2.30;;;;;;;;;;5013500;28;20042;-68
2022/12/25 14:40:02;;;;;;;6.50;2.30;;;;;;;;;;5011873;28;20519;-68
2022/12/25 14:42:30;;;;;;;5.05;2.20;;;;;;;;;;5011628;28;20049;-68
2022/12/25 14:45:24;;;;;;;4.40;1.88;;;;;;;;;;5014313;28;20041;-66
2022/12/25 14:47:52;;;;;;;5.40;2.20;;;;;;;;;;5015035;28;20072;-67
2022/12/25 14:50:30;;;;;;;4.47;1.83;;;;;;;;;;5028312;28;20038;-68
2022/12/25 14:52:57;;;;;;;4.82;2.22;;;;;;;;;;5029838;28;20551;-67
2022/12/25 14:55:26;;;;;;;5.35;2.00;;;;;;;;;;5026275;28;20163;-68
2022/12/25 14:58:03;;;;;;;6.93;1.73;;;;;;;;;;5025678;28;20187;-68
2022/12/25 15:00:35;;;;;;;3.88;1.50;;;;;;;;;;5025157;28;20039;-69
2022/12/25 15:03:03;;;;;;;3.63;1.42;;;;;;;;;;5026418;28;20053;-68
2022/12/25 15:05:30;;;;;;;4.38;1.90;;;;;;;;;;5026224;28;20037;-67
2022/12/25 15:08:18;;;;;;;4.15;1.92;;;;;;;;;;5025506;28;20037;-67
2022/12/25 15:10:45;;;;;;;4.68;1.85;;;;;;;;;;5027356;28;20045;-68
2022/12/25 15:13:17;;;;;;;5.07;1.90;;;;;;;;;;5027527;28;20060;-67
2022/12/25 15:15:49;;;;;;;5.32;2.30;;;;;;;;;;5041273;28;20037;-67
2022/12/25 15:18:15;;;;;;;4.13;1.98;;;;;;;;;;5027371;28;20044;-69
2022/12/25 15:20:42;;;;;;;4.93;2.15;;;;;;;;;;5028210;28;20116;-69
2022/12/25 15:23:13;;;;;;;6.05;2.28;;;;;;;;;;5026778;28;20041;-67
2022/12/25 15:25:40;;;;;;;6.40;2.40;;;;;;;;;;5028236;28;20668;-67
2022/12/25 15:28:07;;;;;;;8.38;3.83;;;;;;;;;;5027472;28;20130;-68
2022/12/25 15:30:34;;;;;;;9.88;3.90;;;;;;;;;;5026183;28;20505;-68
2022/12/25 15:33:01;;;;;;;9.65;4.32;;;;;;;;;;5029193;28;20069;-67
2022/12/25 15:35:29;;;;;;;7.88;3.50;;;;;;;;;;5024622;28;20212;-68
2022/12/25 15:37:55;;;;;;;9.30;4.20;;;;;;;;;;5025945;28;20045;-67
2022/12/25 15:40:22;;;;;;;8.68;4.18;;;;;;;;;;5025048;28;20417;-68
2022/12/25 15:42:49;;;;;;;8.95;4.57;;;;;;;;;;5027571;28;20053;-67
2022/12/25 15:45:29;;;;;;;8.82;4.35;;;;;;;;;;5023407;28;20036;-66
2022/12/25 15:47:56;;;;;;;9.13;5.22;;;;;;;;;;5023079;28;20846;-68
2022/12/25 15:50:23;;;;;;;11.57;4.63;;;;;;;;;;5026691;28;20120;-68
2022/12/25 15:52:50;;;;;;;9.18;4.80;;;;;;;;;;5041845;28;20625;-69
2022/12/25 15:55:16;;;;;;;7.75;4.80;;;;;;;;;;5025945;28;20436;-71
2022/12/25 15:57:44;;;;;;;11.50;5.53;;;;;;;;;;5037643;28;20383;-67
2022/12/25 16:00:15;;;;;;;7.78;4.88;;;;;;;;;;5023265;28;20033;-69
2022/12/25 16:02:41;;;;;;;10.07;4.47;;;;;;;;;;5025939;28;20045;-69
2022/12/25 16:05:08;;;;;;;7.88;4.40;;;;;;;;;;5026203;28;20025;-68
2022/12/25 16:07:36;;;;;;;7.97;4.82;;;;;;;;;;5023446;28;20099;-69
2022/12/25 16:10:03;;;;;;;8.45;4.78;;;;;;;;;;5023180;28;20041;-69
2022/12/25 16:12:30;;;;;;;11.88;5.00;;;;;;;;;;5039402;28;20033;-68
2022/12/25 16:14:57;;;;;;;9.27;4.47;;;;;;;;;;5029774;28;20041;-68
2022/12/25 16:17:23;;;;;;;10.88;4.88;;;;;;;;;;5023181;28;20041;-67
2022/12/25 16:19:50;;;;;;;9.45;4.47;;;;;;;;;;5021302;28;20043;-67
2022/12/25 16:22:20;;;;;;;9.18;5.07;;;;;;;;;;5037032;28;20045;-69
2022/12/25 16:24:47;;;;;;;8.63;5.03;;;;;;;;;;5027361;28;20129;-69
2022/12/25 16:27:14;;;;;;;8.70;5.15;;;;;;;;;;5025676;28;20065;-67
2022/12/25 16:29:41;;;;;;;9.93;4.65;;;;;;;;;;5024016;28;20033;-67
2022/12/25 16:32:08;;;;;;;10.10;5.05;;;;;;;;;;5026059;28;20376;-69
2022/12/25 16:34:35;;;;;;;9.32;5.25;;;;;;;;;;5022519;28;20806;-69
2022/12/25 16:37:02;;;;;;;12.73;5.68;;;;;;;;;;5024014;28;20461;-68
2022/12/25 16:39:28;;;;;;;9.88;5.38;;;;;;;;;;5018926;28;20772;-67